sensor_id;sensor_type;location;lat;lon;timestamp;pressure;altitude;pressure_sealevel;temperature;humidity
73003;BME280;61184;54.356;-8.550;2022-12-07T00:01:24;102749.67;;;23.04;30.94
73003;BME280;61184;54.356;-8.550;2022-12-07T00:03:48;102749.61;;;22.83;30.92
73003;BME280;61184;54.356;-8.550;2022-12-07T00:06:15;102748.14;;;22.90;31.12
73003;BME280;61184;54.356;-8.550;2022-12-07T00:08:39;102745.94;;;22.74;31.55
73003;BME280;61184;54.356;-8.550;2022-12-07T00:11:05;102745.06;;;20.83;34.07
73003;BME280;61184;54.356;-8.550;2022-12-07T00:13:28;102737.87;;;22.04;32.76
73003;BME280;61184;54.356;-8.550;2022-12-07T00:15:54;102738.10;;;22.02;32.46
73003;BME280;61184;54.356;-8.550;2022-12-07T00:18:20;102739.82;;;22.34;32.33
73003;BME280;61184;54.356;-8.550;2022-12-07T00:20:45;102739.31;;;22.17;32.18
73003;BME280;61184;54.356;-8.550;2022-12-07T00:23:19;102740.68;;;22.12;32.17
73003;BME280;61184;54.356;-8.550;2022-12-07T00:25:35;102737.97;;;22.06;32.29
73003;BME280;61184;54.356;-8.550;2022-12-07T00:28:01;102735.34;;;22.26;32.26
73003;BME280;61184;54.356;-8.550;2022-12-07T00:30:26;102736.22;;;21.88;32.31
73003;BME280;61184;54.356;-8.550;2022-12-07T00:32:54;102735.99;;;21.83;32.39
73003;BME280;61184;54.356;-8.550;2022-12-07T00:35:17;102739.20;;;21.71;32.58
73003;BME280;61184;54.356;-8.550;2022-12-07T00:37:42;102735.65;;;21.74;32.37
73003;BME280;61184;54.356;-8.550;2022-12-07T00:40:09;102733.39;;;21.74;32.67
73003;BME280;61184;54.356;-8.550;2022-12-07T00:42:33;102729.79;;;21.72;32.65
73003;BME280;61184;54.356;-8.550;2022-12-07T00:44:59;102728.79;;;21.75;32.62
73003;BME280;61184;54.356;-8.550;2022-12-07T00:47:24;102728.60;;;21.50;32.57
73003;BME280;61184;54.356;-8.550;2022-12-07T00:49:50;102727.66;;;21.41;32.63
73003;BME280;61184;54.356;-8.550;2022-12-07T00:52:15;102729.15;;;21.71;32.51
73003;BME280;61184;54.356;-8.550;2022-12-07T00:54:40;102730.96;;;21.65;32.53
73003;BME280;61184;54.356;-8.550;2022-12-07T00:57:06;102733.81;;;21.64;32.50
73003;BME280;61184;54.356;-8.550;2022-12-07T00:59:31;102734.91;;;21.61;32.52
73003;BME280;61184;54.356;-8.550;2022-12-07T01:01:57;102731.60;;;21.54;32.53
73003;BME280;61184;54.356;-8.550;2022-12-07T01:04:27;102729.46;;;21.51;32.54
73003;BME280;61184;54.356;-8.550;2022-12-07T01:06:54;102731.01;;;21.44;32.59
73003;BME280;61184;54.356;-8.550;2022-12-07T01:09:13;102728.60;;;21.73;32.54
73003;BME280;61184;54.356;-8.550;2022-12-07T01:11:39;102728.58;;;21.44;32.51
73003;BME280;61184;54.356;-8.550;2022-12-07T01:14:06;102729.31;;;21.13;32.62
73003;BME280;61184;54.356;-8.550;2022-12-07T01:16:31;102726.68;;;21.33;32.62
73003;BME280;61184;54.356;-8.550;2022-12-07T01:18:59;102725.12;;;21.37;32.52
73003;BME280;61184;54.356;-8.550;2022-12-07T01:21:22;102720.54;;;21.28;32.59
73003;BME280;61184;54.356;-8.550;2022-12-07T01:23:49;102716.06;;;21.10;32.81
73003;BME280;61184;54.356;-8.550;2022-12-07T01:26:16;102715.21;;;21.17;32.65
73003;BME280;61184;54.356;-8.550;2022-12-07T01:28:40;102714.38;;;21.11;32.71
73003;BME280;61184;54.356;-8.550;2022-12-07T01:31:04;102709.95;;;21.05;32.74
73003;BME280;61184;54.356;-8.550;2022-12-07T01:33:33;102705.29;;;20.97;32.84
73003;BME280;61184;54.356;-8.550;2022-12-07T01:35:53;102700.43;;;21.04;32.70
73003;BME280;61184;54.356;-8.550;2022-12-07T01:38:18;102694.90;;;21.05;32.70
73003;BME280;61184;54.356;-8.550;2022-12-07T01:40:44;102691.71;;;21.25;32.68
73003;BME280;61184;54.356;-8.550;2022-12-07T01:43:17;102693.98;;;20.91;32.87
73003;BME280;61184;54.356;-8.550;2022-12-07T01:45:39;102694.63;;;20.91;32.82
73003;BME280;61184;54.356;-8.550;2022-12-07T01:48:02;102699.20;;;20.76;32.94
73003;BME280;61184;54.356;-8.550;2022-12-07T01:50:29;102696.71;;;21.24;32.95
73003;BME280;61184;54.356;-8.550;2022-12-07T01:52:53;102695.97;;;20.65;33.07
73003;BME280;61184;54.356;-8.550;2022-12-07T01:55:17;102688.10;;;20.67;33.02
73003;BME280;61184;54.356;-8.550;2022-12-07T01:57:47;102685.04;;;20.65;33.04
73003;BME280;61184;54.356;-8.550;2022-12-07T02:00:11;102679.62;;;20.69;32.95
73003;BME280;61184;54.356;-8.550;2022-12-07T02:02:35;102679.60;;;20.86;32.63
73003;BME280;61184;54.356;-8.550;2022-12-07T02:05:04;102681.99;;;21.26;32.49
73003;BME280;61184;54.356;-8.550;2022-12-07T02:07:26;102682.98;;;21.30;32.10
73003;BME280;61184;54.356;-8.550;2022-12-07T02:09:52;102682.14;;;21.49;31.85
73003;BME280;61184;54.356;-8.550;2022-12-07T02:12:15;102684.68;;;21.84;31.49
73003;BME280;61184;54.356;-8.550;2022-12-07T02:14:40;102687.02;;;22.14;31.12
73003;BME280;61184;54.356;-8.550;2022-12-07T02:17:14;102686.09;;;22.36;30.89
73003;BME280;61184;54.356;-8.550;2022-12-07T02:22:00;102686.36;;;22.18;30.82
73003;BME280;61184;54.356;-8.550;2022-12-07T02:24:40;102686.02;;;22.69;30.66
73003;BME280;61184;54.356;-8.550;2022-12-07T02:27:01;102685.48;;;22.92;30.63
73003;BME280;61184;54.356;-8.550;2022-12-07T02:29:18;102686.86;;;22.76;30.60
73003;BME280;61184;54.356;-8.550;2022-12-07T02:31:43;102686.31;;;22.76;30.65
73003;BME280;61184;54.356;-8.550;2022-12-07T02:34:07;102682.89;;;22.78;30.71
73003;BME280;61184;54.356;-8.550;2022-12-07T02:36:31;102685.45;;;22.53;30.79
73003;BME280;61184;54.356;-8.550;2022-12-07T02:38:58;102688.06;;;22.71;30.92
73003;BME280;61184;54.356;-8.550;2022-12-07T02:41:24;102685.53;;;22.71;30.98
73003;BME280;61184;54.356;-8.550;2022-12-07T02:43:49;102686.38;;;22.41;31.10
73003;BME280;61184;54.356;-8.550;2022-12-07T02:46:16;102686.71;;;22.67;31.08
73003;BME280;61184;54.356;-8.550;2022-12-07T02:48:37;102685.20;;;22.63;31.16
73003;BME280;61184;54.356;-8.550;2022-12-07T02:51:02;102684.77;;;22.57;31.23
73003;BME280;61184;54.356;-8.550;2022-12-07T02:53:30;102685.80;;;22.45;31.38
73003;BME280;61184;54.356;-8.550;2022-12-07T02:55:52;102680.12;;;22.20;31.42
73003;BME280;61184;54.356;-8.550;2022-12-07T02:58:36;102676.49;;;22.44;31.43
73003;BME280;61184;54.356;-8.550;2022-12-07T03:00:52;102676.03;;;22.39;31.50
73003;BME280;61184;54.356;-8.550;2022-12-07T03:03:10;102671.90;;;22.17;31.48
73003;BME280;61184;54.356;-8.550;2022-12-07T03:05:44;102673.71;;;22.58;31.53
73003;BME280;61184;54.356;-8.550;2022-12-07T03:08:02;102673.03;;;22.45;31.68
73003;BME280;61184;54.356;-8.550;2022-12-07T03:10:31;102671.26;;;22.48;31.61
73003;BME280;61184;54.356;-8.550;2022-12-07T03:13:07;102671.97;;;22.27;31.54
73003;BME280;61184;54.356;-8.550;2022-12-07T03:15:26;102670.53;;;22.17;31.66
73003;BME280;61184;54.356;-8.550;2022-12-07T03:17:43;102668.32;;;22.14;31.67
73003;BME280;61184;54.356;-8.550;2022-12-07T03:20:11;102663.49;;;21.96;31.56
73003;BME280;61184;54.356;-8.550;2022-12-07T03:22:34;102660.43;;;22.11;31.63
73003;BME280;61184;54.356;-8.550;2022-12-07T03:25:00;102655.68;;;22.00;31.74
73003;BME280;61184;54.356;-8.550;2022-12-07T03:27:26;102654.09;;;21.97;31.75
73003;BME280;61184;54.356;-8.550;2022-12-07T03:29:51;102657.32;;;22.16;31.78
73003;BME280;61184;54.356;-8.550;2022-12-07T03:32:16;102655.79;;;22.15;31.77
73003;BME280;61184;54.356;-8.550;2022-12-07T03:34:46;102656.68;;;21.91;31.73
73003;BME280;61184;54.356;-8.550;2022-12-07T03:37:14;102656.85;;;21.88;31.74
73003;BME280;61184;54.356;-8.550;2022-12-07T03:39:35;102654.33;;;22.06;31.80
73003;BME280;61184;54.356;-8.550;2022-12-07T03:42:05;102649.23;;;21.98;31.83
73003;BME280;61184;54.356;-8.550;2022-12-07T03:44:22;102645.37;;;21.98;31.81
73003;BME280;61184;54.356;-8.550;2022-12-07T03:46:52;102645.54;;;21.65;31.90
73003;BME280;61184;54.356;-8.550;2022-12-07T03:49:17;102643.01;;;21.80;31.98
73003;BME280;61184;54.356;-8.550;2022-12-07T03:51:44;102642.04;;;21.76;31.98
73003;BME280;61184;54.356;-8.550;2022-12-07T03:54:09;102640.31;;;21.74;32.02
73003;BME280;61184;54.356;-8.550;2022-12-07T03:56:29;102637.91;;;21.61;32.16
73003;BME280;61184;54.356;-8.550;2022-12-07T03:58:57;102636.55;;;21.78;32.23
73003;BME280;61184;54.356;-8.550;2022-12-07T04:01:28;102633.69;;;21.24;32.27
73003;BME280;61184;54.356;-8.550;2022-12-07T04:03:45;102630.72;;;21.69;32.28
73003;BME280;61184;54.356;-8.550;2022-12-07T04:06:10;102626.76;;;21.35;32.33
73003;BME280;61184;54.356;-8.550;2022-12-07T04:08:36;102624.31;;;21.27;32.41
73003;BME280;61184;54.356;-8.550;2022-12-07T04:11:01;102620.00;;;21.54;32.35
73003;BME280;61184;54.356;-8.550;2022-12-07T04:13:26;102617.30;;;21.30;32.40
73003;BME280;61184;54.356;-8.550;2022-12-07T04:15:51;102615.17;;;21.05;32.40
73003;BME280;61184;54.356;-8.550;2022-12-07T04:18:17;102612.94;;;21.19;32.50
73003;BME280;61184;54.356;-8.550;2022-12-07T04:20:45;102611.03;;;21.11;32.56
73003;BME280;61184;54.356;-8.550;2022-12-07T04:23:08;102611.51;;;21.09;32.53
73003;BME280;61184;54.356;-8.550;2022-12-07T04:25:33;102611.35;;;21.09;32.48
73003;BME280;61184;54.356;-8.550;2022-12-07T04:27:58;102608.90;;;21.17;32.43
73003;BME280;61184;54.356;-8.550;2022-12-07T04:30:24;102607.63;;;21.20;32.34
73003;BME280;61184;54.356;-8.550;2022-12-07T04:32:50;102603.33;;;21.04;32.45
73003;BME280;61184;54.356;-8.550;2022-12-07T04:35:15;102601.53;;;21.03;32.48
73003;BME280;61184;54.356;-8.550;2022-12-07T04:37:40;102599.20;;;21.43;32.55
73003;BME280;61184;54.356;-8.550;2022-12-07T04:40:08;102601.51;;;21.05;32.40
73003;BME280;61184;54.356;-8.550;2022-12-07T04:42:32;102598.21;;;20.95;32.51
73003;BME280;61184;54.356;-8.550;2022-12-07T04:44:57;102593.53;;;21.03;32.70
73003;BME280;61184;54.356;-8.550;2022-12-07T04:47:22;102595.91;;;21.15;32.48
73003;BME280;61184;54.356;-8.550;2022-12-07T04:49:47;102596.77;;;20.89;32.48
73003;BME280;61184;54.356;-8.550;2022-12-07T04:52:13;102598.03;;;20.98;32.67
73003;BME280;61184;54.356;-8.550;2022-12-07T04:54:38;102598.57;;;21.02;32.58
73003;BME280;61184;54.356;-8.550;2022-12-07T04:57:04;102603.59;;;20.95;32.65
73003;BME280;61184;54.356;-8.550;2022-12-07T04:59:31;102604.46;;;20.87;32.70
73003;BME280;61184;54.356;-8.550;2022-12-07T05:01:54;102606.15;;;21.15;32.70
73003;BME280;61184;54.356;-8.550;2022-12-07T05:04:20;102607.87;;;20.87;32.70
73003;BME280;61184;54.356;-8.550;2022-12-07T05:06:45;102609.40;;;20.55;32.78
73003;BME280;61184;54.356;-8.550;2022-12-07T05:09:11;102609.63;;;20.83;33.01
73003;BME280;61184;54.356;-8.550;2022-12-07T05:11:37;102609.03;;;21.05;32.73
73003;BME280;61184;54.356;-8.550;2022-12-07T05:14:02;102608.55;;;20.50;33.08
73003;BME280;61184;54.356;-8.550;2022-12-07T05:16:29;102608.65;;;20.82;32.91
73003;BME280;61184;54.356;-8.550;2022-12-07T05:18:53;102605.00;;;20.38;32.89
73003;BME280;61184;54.356;-8.550;2022-12-07T05:21:18;102604.51;;;20.79;32.95
73003;BME280;61184;54.356;-8.550;2022-12-07T05:23:44;102599.29;;;20.78;32.95
73003;BME280;61184;54.356;-8.550;2022-12-07T05:26:09;102593.50;;;20.88;32.75
73003;BME280;61184;54.356;-8.550;2022-12-07T05:28:35;102596.55;;;20.53;32.95
73003;BME280;61184;54.356;-8.550;2022-12-07T05:31:00;102592.99;;;20.82;32.82
73003;BME280;61184;54.356;-8.550;2022-12-07T05:33:25;102593.42;;;20.76;32.82
73003;BME280;61184;54.356;-8.550;2022-12-07T05:35:51;102595.33;;;20.50;32.93
73003;BME280;61184;54.356;-8.550;2022-12-07T05:38:17;102597.46;;;20.75;32.89
73003;BME280;61184;54.356;-8.550;2022-12-07T05:40:42;102594.32;;;20.51;32.84
73003;BME280;61184;54.356;-8.550;2022-12-07T05:43:07;102588.34;;;20.22;32.91
73003;BME280;61184;54.356;-8.550;2022-12-07T05:45:35;102588.42;;;20.69;32.87
73003;BME280;61184;54.356;-8.550;2022-12-07T05:48:00;102582.47;;;20.52;33.06
73003;BME280;61184;54.356;-8.550;2022-12-07T05:50:31;102579.82;;;20.69;32.74
73003;BME280;61184;54.356;-8.550;2022-12-07T05:52:49;102577.09;;;20.64;32.80
73003;BME280;61184;54.356;-8.550;2022-12-07T05:55:15;102580.80;;;20.60;32.82
73003;BME280;61184;54.356;-8.550;2022-12-07T05:57:44;102579.97;;;20.53;32.93
73003;BME280;61184;54.356;-8.550;2022-12-07T06:00:08;102582.59;;;20.55;32.91
73003;BME280;61184;54.356;-8.550;2022-12-07T06:02:31;102580.57;;;20.16;33.00
73003;BME280;61184;54.356;-8.550;2022-12-07T06:04:57;102581.40;;;20.20;33.03
73003;BME280;61184;54.356;-8.550;2022-12-07T06:07:22;102577.59;;;20.20;32.93
73003;BME280;61184;54.356;-8.550;2022-12-07T06:09:47;102578.04;;;20.67;32.93
73003;BME280;61184;54.356;-8.550;2022-12-07T06:12:14;102579.10;;;20.46;32.85
73003;BME280;61184;54.356;-8.550;2022-12-07T06:14:38;102581.02;;;20.26;33.08
73003;BME280;61184;54.356;-8.550;2022-12-07T06:17:04;102577.17;;;20.36;33.00
73003;BME280;61184;54.356;-8.550;2022-12-07T06:19:29;102577.66;;;20.33;33.01
73003;BME280;61184;54.356;-8.550;2022-12-07T06:21:55;102578.75;;;20.34;32.97
73003;BME280;61184;54.356;-8.550;2022-12-07T06:24:23;102581.46;;;20.26;33.04
73003;BME280;61184;54.356;-8.550;2022-12-07T06:26:46;102579.46;;;20.34;32.90
73003;BME280;61184;54.356;-8.550;2022-12-07T06:29:12;102583.07;;;20.29;32.93
73003;BME280;61184;54.356;-8.550;2022-12-07T06:31:36;102585.53;;;20.16;33.12
73003;BME280;61184;54.356;-8.550;2022-12-07T06:34:04;102581.75;;;20.08;33.21
73003;BME280;61184;54.356;-8.550;2022-12-07T06:36:28;102576.03;;;20.42;33.06
73003;BME280;61184;54.356;-8.550;2022-12-07T06:38:53;102568.76;;;20.38;33.06
73003;BME280;61184;54.356;-8.550;2022-12-07T06:41:19;102569.00;;;20.13;33.04
73003;BME280;61184;54.356;-8.550;2022-12-07T06:43:44;102568.04;;;20.08;32.86
73003;BME280;61184;54.356;-8.550;2022-12-07T06:46:09;102571.33;;;20.42;32.36
73003;BME280;61184;54.356;-8.550;2022-12-07T06:48:39;102571.51;;;20.78;32.21
73003;BME280;61184;54.356;-8.550;2022-12-07T06:51:02;102568.14;;;20.83;31.81
73003;BME280;61184;54.356;-8.550;2022-12-07T06:53:25;102569.64;;;21.18;31.64
73003;BME280;61184;54.356;-8.550;2022-12-07T06:55:51;102571.68;;;21.09;31.45
73003;BME280;61184;54.356;-8.550;2022-12-07T06:58:17;102572.24;;;21.48;31.29
73003;BME280;61184;54.356;-8.550;2022-12-07T07:00:43;102569.14;;;21.39;31.13
73003;BME280;61184;54.356;-8.550;2022-12-07T07:03:08;102573.56;;;21.32;30.98
73003;BME280;61184;54.356;-8.550;2022-12-07T07:05:33;102572.78;;;21.50;30.80
73003;BME280;61184;54.356;-8.550;2022-12-07T07:07:58;102569.90;;;21.59;30.74
73003;BME280;61184;54.356;-8.550;2022-12-07T07:10:24;102568.98;;;21.98;30.60
73003;BME280;61184;54.356;-8.550;2022-12-07T07:12:49;102570.32;;;21.55;30.61
73003;BME280;61184;54.356;-8.550;2022-12-07T07:15:15;102572.20;;;21.95;30.51
73003;BME280;61184;54.356;-8.550;2022-12-07T07:17:40;102568.59;;;22.04;30.45
73003;BME280;61184;54.356;-8.550;2022-12-07T07:20:06;102568.86;;;22.05;30.54
73003;BME280;61184;54.356;-8.550;2022-12-07T07:22:31;102563.91;;;22.09;30.54
73003;BME280;61184;54.356;-8.550;2022-12-07T07:24:57;102563.74;;;22.09;30.61
73003;BME280;61184;54.356;-8.550;2022-12-07T07:27:22;102562.39;;;22.07;30.72
73003;BME280;61184;54.356;-8.550;2022-12-07T07:29:47;102560.72;;;22.08;30.76
73003;BME280;61184;54.356;-8.550;2022-12-07T07:32:13;102553.59;;;21.82;30.82
73003;BME280;61184;54.356;-8.550;2022-12-07T07:34:39;102552.17;;;21.97;30.95
73003;BME280;61184;54.356;-8.550;2022-12-07T07:37:04;102547.21;;;21.99;30.94
73003;BME280;61184;54.356;-8.550;2022-12-07T07:39:29;102552.00;;;21.97;31.02
73003;BME280;61184;54.356;-8.550;2022-12-07T07:41:55;102550.34;;;21.92;31.08
73003;BME280;61184;54.356;-8.550;2022-12-07T07:44:22;102551.32;;;21.85;31.18
73003;BME280;61184;54.356;-8.550;2022-12-07T07:46:45;102550.75;;;21.83;31.20
73003;BME280;61184;54.356;-8.550;2022-12-07T07:49:13;102546.79;;;21.53;31.28
73003;BME280;61184;54.356;-8.550;2022-12-07T07:51:36;102548.24;;;21.68;31.39
73003;BME280;61184;54.356;-8.550;2022-12-07T07:54:03;102552.72;;;21.86;31.46
73003;BME280;61184;54.356;-8.550;2022-12-07T07:56:28;102557.08;;;21.62;31.46
73003;BME280;61184;54.356;-8.550;2022-12-07T07:58:54;102556.05;;;21.58;31.48
73003;BME280;61184;54.356;-8.550;2022-12-07T08:01:22;102553.15;;;21.52;31.55
73003;BME280;61184;54.356;-8.550;2022-12-07T08:03:44;102551.91;;;21.45;31.66
73003;BME280;61184;54.356;-8.550;2022-12-07T08:06:09;102552.61;;;21.42;31.65
73003;BME280;61184;54.356;-8.550;2022-12-07T08:08:35;102555.71;;;21.42;31.67
73003;BME280;61184;54.356;-8.550;2022-12-07T08:11:00;102557.59;;;21.37;31.72
73003;BME280;61184;54.356;-8.550;2022-12-07T08:13:26;102558.89;;;21.29;31.76
73003;BME280;61184;54.356;-8.550;2022-12-07T08:15:52;102558.12;;;21.23;31.84
73003;BME280;61184;54.356;-8.550;2022-12-07T08:18:16;102560.80;;;21.24;31.77
73003;BME280;61184;54.356;-8.550;2022-12-07T08:20:43;102562.42;;;21.68;31.80
73003;BME280;61184;54.356;-8.550;2022-12-07T08:23:09;102559.51;;;21.38;31.87
73003;BME280;61184;54.356;-8.550;2022-12-07T08:25:33;102561.14;;;21.10;31.90
73003;BME280;61184;54.356;-8.550;2022-12-07T08:28:04;102562.44;;;21.50;31.98
73003;BME280;61184;54.356;-8.550;2022-12-07T08:30:24;102565.91;;;21.20;31.99
73003;BME280;61184;54.356;-8.550;2022-12-07T08:32:49;102565.29;;;21.24;31.96
73003;BME280;61184;54.356;-8.550;2022-12-07T08:35:15;102562.22;;;20.93;31.99
73003;BME280;61184;54.356;-8.550;2022-12-07T08:37:40;102562.18;;;21.43;31.98
73003;BME280;61184;54.356;-8.550;2022-12-07T08:40:07;102558.39;;;21.00;32.19
73003;BME280;61184;54.356;-8.550;2022-12-07T08:42:31;102556.39;;;21.22;32.24
73003;BME280;61184;54.356;-8.550;2022-12-07T08:44:57;102557.94;;;20.89;32.34
73003;BME280;61184;54.356;-8.550;2022-12-07T08:47:24;102559.03;;;20.87;32.31
73003;BME280;61184;54.356;-8.550;2022-12-07T08:49:50;102556.26;;;20.84;32.33
73003;BME280;61184;54.356;-8.550;2022-12-07T08:52:13;102558.31;;;20.87;32.27
73003;BME280;61184;54.356;-8.550;2022-12-07T08:54:39;102558.27;;;21.00;32.41
73003;BME280;61184;54.356;-8.550;2022-12-07T08:57:04;102558.17;;;21.03;32.33
73003;BME280;61184;54.356;-8.550;2022-12-07T08:59:29;102555.64;;;20.69;32.49
73003;BME280;61184;54.356;-8.550;2022-12-07T09:01:55;102551.36;;;20.44;32.46
73003;BME280;61184;54.356;-8.550;2022-12-07T09:04:20;102543.53;;;20.83;32.59
73003;BME280;61184;54.356;-8.550;2022-12-07T09:06:45;102541.49;;;20.86;32.48
73003;BME280;61184;54.356;-8.550;2022-12-07T09:09:12;102541.77;;;20.55;32.58
73003;BME280;61184;54.356;-8.550;2022-12-07T09:11:37;102541.90;;;20.51;32.63
73003;BME280;61184;54.356;-8.550;2022-12-07T09:14:02;102542.80;;;20.77;32.55
73003;BME280;61184;54.356;-8.550;2022-12-07T09:16:31;102548.71;;;20.73;32.62
73003;BME280;61184;54.356;-8.550;2022-12-07T09:18:54;102553.34;;;19.59;36.62
73003;BME280;61184;54.356;-8.550;2022-12-07T09:21:18;102554.84;;;19.41;35.26
73003;BME280;61184;54.356;-8.550;2022-12-07T09:23:44;102558.48;;;19.30;35.73
73003;BME280;61184;54.356;-8.550;2022-12-07T09:26:10;102558.91;;;19.02;36.11
73003;BME280;61184;54.356;-8.550;2022-12-07T09:28:35;102555.46;;;19.67;35.34
73003;BME280;61184;54.356;-8.550;2022-12-07T09:31:01;102552.56;;;19.54;36.13
73003;BME280;61184;54.356;-8.550;2022-12-07T09:33:26;102552.29;;;18.95;36.25
73003;BME280;61184;54.356;-8.550;2022-12-07T09:35:53;102552.00;;;18.81;36.58
73003;BME280;61184;54.356;-8.550;2022-12-07T09:38:18;102552.97;;;19.14;36.72
73003;BME280;61184;54.356;-8.550;2022-12-07T09:40:43;102548.05;;;19.26;36.22
73003;BME280;61184;54.356;-8.550;2022-12-07T09:43:13;102548.02;;;19.15;36.01
73003;BME280;61184;54.356;-8.550;2022-12-07T09:45:35;102547.09;;;19.22;35.89
73003;BME280;61184;54.356;-8.550;2022-12-07T09:47:59;102544.03;;;19.42;35.65
73003;BME280;61184;54.356;-8.550;2022-12-07T09:50:26;102541.79;;;19.16;36.08
73003;BME280;61184;54.356;-8.550;2022-12-07T09:52:50;102540.17;;;19.66;35.67
73003;BME280;61184;54.356;-8.550;2022-12-07T09:55:16;102537.03;;;19.18;35.61
73003;BME280;61184;54.356;-8.550;2022-12-07T09:57:42;102535.68;;;19.61;35.44
73003;BME280;61184;54.356;-8.550;2022-12-07T10:00:13;102537.90;;;19.71;35.35
73003;BME280;61184;54.356;-8.550;2022-12-07T10:02:36;102537.42;;;19.53;35.29
73003;BME280;61184;54.356;-8.550;2022-12-07T10:04:57;102538.96;;;19.83;35.29
73003;BME280;61184;54.356;-8.550;2022-12-07T10:07:22;102539.22;;;19.60;35.36
73003;BME280;61184;54.356;-8.550;2022-12-07T10:09:47;102537.07;;;19.97;35.20
73003;BME280;61184;54.356;-8.550;2022-12-07T10:12:13;102532.52;;;19.69;35.34
73003;BME280;61184;54.356;-8.550;2022-12-07T10:19:31;102527.36;;;20.06;34.87
73003;BME280;61184;54.356;-8.550;2022-12-07T10:22:04;102528.84;;;20.37;34.82
73003;BME280;61184;54.356;-8.550;2022-12-07T10:24:22;102526.94;;;20.17;34.83
73003;BME280;61184;54.356;-8.550;2022-12-07T10:26:51;102523.00;;;20.49;34.49
73003;BME280;61184;54.356;-8.550;2022-12-07T10:29:16;102525.36;;;21.67;33.46
73003;BME280;61184;54.356;-8.550;2022-12-07T10:31:39;102519.56;;;22.21;32.76
73003;BME280;61184;54.356;-8.550;2022-12-07T10:34:02;102514.87;;;22.09;32.46
73003;BME280;61184;54.356;-8.550;2022-12-07T10:36:34;102509.64;;;22.00;32.29
73003;BME280;61184;54.356;-8.550;2022-12-07T10:39:01;102503.05;;;22.35;32.35
73003;BME280;61184;54.356;-8.550;2022-12-07T10:41:29;102500.40;;;22.47;31.84
73003;BME280;61184;54.356;-8.550;2022-12-07T10:43:48;102501.17;;;22.63;31.62
73003;BME280;61184;54.356;-8.550;2022-12-07T10:48:41;102504.90;;;23.28;30.83
73003;BME280;61184;54.356;-8.550;2022-12-07T10:51:07;102501.15;;;23.43;30.44
73003;BME280;61184;54.356;-8.550;2022-12-07T10:53:35;102497.46;;;23.64;30.57
73003;BME280;61184;54.356;-8.550;2022-12-07T10:56:08;102496.58;;;23.64;30.63
73003;BME280;61184;54.356;-8.550;2022-12-07T10:58:27;102492.03;;;23.51;30.55
73003;BME280;61184;54.356;-8.550;2022-12-07T11:00:56;102493.00;;;22.79;32.25
73003;BME280;61184;54.356;-8.550;2022-12-07T11:03:23;102485.09;;;22.70;32.33
73003;BME280;61184;54.356;-8.550;2022-12-07T11:05:39;102483.83;;;22.50;32.28
73003;BME280;61184;54.356;-8.550;2022-12-07T11:08:03;102483.46;;;22.29;32.66
73003;BME280;61184;54.356;-8.550;2022-12-07T11:10:28;102481.75;;;21.80;33.65
73003;BME280;61184;54.356;-8.550;2022-12-07T11:13:02;102480.84;;;22.01;33.44
73003;BME280;61184;54.356;-8.550;2022-12-07T11:15:18;102482.36;;;22.63;32.72
73003;BME280;61184;54.356;-8.550;2022-12-07T11:17:47;102481.28;;;22.42;33.05
73003;BME280;61184;54.356;-8.550;2022-12-07T11:22:36;102479.45;;;22.42;33.16
73003;BME280;61184;54.356;-8.550;2022-12-07T11:25:02;102475.88;;;22.57;32.88
73003;BME280;61184;54.356;-8.550;2022-12-07T11:27:34;102472.40;;;22.22;33.05
73003;BME280;61184;54.356;-8.550;2022-12-07T11:30:00;102468.91;;;22.48;33.05
73003;BME280;61184;54.356;-8.550;2022-12-07T11:32:19;102465.30;;;22.49;33.05
73003;BME280;61184;54.356;-8.550;2022-12-07T11:34:44;102465.32;;;22.76;32.80
73003;BME280;61184;54.356;-8.550;2022-12-07T11:37:08;102464.11;;;22.80;32.84
73003;BME280;61184;54.356;-8.550;2022-12-07T11:39:33;102462.71;;;22.78;32.97
73003;BME280;61184;54.356;-8.550;2022-12-07T11:42:00;102458.81;;;22.54;32.92
73003;BME280;61184;54.356;-8.550;2022-12-07T11:44:27;102457.16;;;22.67;32.77
73003;BME280;61184;54.356;-8.550;2022-12-07T11:46:49;102454.89;;;22.75;32.62
73003;BME280;61184;54.356;-8.550;2022-12-07T11:49:15;102455.30;;;22.92;33.08
73003;BME280;61184;54.356;-8.550;2022-12-07T11:51:38;102453.09;;;22.68;32.87
73003;BME280;61184;54.356;-8.550;2022-12-07T11:54:05;102452.20;;;22.79;33.24
73003;BME280;61184;54.356;-8.550;2022-12-07T11:56:27;102449.41;;;23.13;32.64
73003;BME280;61184;54.356;-8.550;2022-12-07T11:58:55;102442.55;;;23.02;32.74
73003;BME280;61184;54.356;-8.550;2022-12-07T12:01:29;102436.36;;;22.56;32.70
73003;BME280;61184;54.356;-8.550;2022-12-07T12:03:46;102438.27;;;23.00;32.76
73003;BME280;61184;54.356;-8.550;2022-12-07T12:06:08;102438.78;;;22.81;32.71
73003;BME280;61184;54.356;-8.550;2022-12-07T12:08:38;102434.38;;;22.82;32.72
73003;BME280;61184;54.356;-8.550;2022-12-07T12:11:06;102433.95;;;22.88;32.95
73003;BME280;61184;54.356;-8.550;2022-12-07T12:16:03;102430.46;;;23.10;32.84
73003;BME280;61184;54.356;-8.550;2022-12-07T12:18:38;102430.38;;;22.93;33.30
73003;BME280;61184;54.356;-8.550;2022-12-07T12:20:43;102428.24;;;23.16;32.66
73003;BME280;61184;54.356;-8.550;2022-12-07T12:23:11;102428.03;;;22.92;32.86
73003;BME280;61184;54.356;-8.550;2022-12-07T12:25:38;102427.83;;;23.07;32.77
73003;BME280;61184;54.356;-8.550;2022-12-07T12:27:59;102420.91;;;23.09;33.02
73003;BME280;61184;54.356;-8.550;2022-12-07T12:30:30;102418.17;;;23.08;32.89
73003;BME280;61184;54.356;-8.550;2022-12-07T12:32:48;102410.61;;;23.16;32.77
73003;BME280;61184;54.356;-8.550;2022-12-07T12:35:29;102405.92;;;22.47;33.69
73003;BME280;61184;54.356;-8.550;2022-12-07T12:37:42;102400.31;;;23.91;31.71
73003;BME280;61184;54.356;-8.550;2022-12-07T12:54:37;102376.76;;;23.33;31.41
73003;BME280;61184;54.356;-8.550;2022-12-07T12:57:06;102381.26;;;22.02;33.35
73003;BME280;61184;54.356;-8.550;2022-12-07T12:59:30;102377.98;;;22.55;32.83